sensor_id;sensor_type;location;lat;lon;timestamp;P1;durP1;ratioP1;P2;durP2;ratioP2
77451;SDS011;66537;52.370;4.832;2024-01-10T00:00:02;11.50;;;3.37;;
77451;SDS011;66537;52.370;4.832;2024-01-10T00:02:27;10.43;;;4.20;;
77451;SDS011;66537;52.370;4.832;2024-01-10T00:04:53;9.13;;;3.67;;
77451;SDS011;66537;52.370;4.832;2024-01-10T00:07:18;9.00;;;4.10;;
77451;SDS011;66537;52.370;4.832;2024-01-10T00:09:43;10.75;;;4.43;;
77451;SDS011;66537;52.370;4.832;2024-01-10T00:12:10;10.60;;;4.20;;
77451;SDS011;66537;52.370;4.832;2024-01-10T00:14:36;10.70;;;4.47;;
77451;SDS011;66537;52.370;4.832;2024-01-10T00:17:01;10.73;;;4.43;;
77451;SDS011;66537;52.370;4.832;2024-01-10T00:19:26;11.60;;;5.27;;
77451;SDS011;66537;52.370;4.832;2024-01-10T00:21:52;12.65;;;4.75;;
77451;SDS011;66537;52.370;4.832;2024-01-10T00:24:17;16.13;;;5.30;;
77451;SDS011;66537;52.370;4.832;2024-01-10T00:26:42;12.83;;;5.57;;
77451;SDS011;66537;52.370;4.832;2024-01-10T00:29:08;12.13;;;5.35;;
77451;SDS011;66537;52.370;4.832;2024-01-10T00:31:33;15.80;;;4.87;;
77451;SDS011;66537;52.370;4.832;2024-01-10T00:33:59;13.52;;;5.18;;
77451;SDS011;66537;52.370;4.832;2024-01-10T00:36:24;14.70;;;5.50;;
77451;SDS011;66537;52.370;4.832;2024-01-10T00:38:50;10.82;;;4.70;;
77451;SDS011;66537;52.370;4.832;2024-01-10T00:41:15;15.47;;;6.03;;
77451;SDS011;66537;52.370;4.832;2024-01-10T00:43:41;13.30;;;5.17;;
77451;SDS011;66537;52.370;4.832;2024-01-10T00:46:06;12.27;;;5.03;;
77451;SDS011;66537;52.370;4.832;2024-01-10T00:48:31;11.43;;;4.73;;
77451;SDS011;66537;52.370;4.832;2024-01-10T00:50:57;11.82;;;5.43;;
77451;SDS011;66537;52.370;4.832;2024-01-10T00:53:23;13.55;;;5.82;;
77451;SDS011;66537;52.370;4.832;2024-01-10T00:55:48;14.23;;;6.23;;
77451;SDS011;66537;52.370;4.832;2024-01-10T00:58:14;12.85;;;5.00;;
77451;SDS011;66537;52.370;4.832;2024-01-10T01:00:39;11.33;;;5.23;;
77451;SDS011;66537;52.370;4.832;2024-01-10T01:03:06;12.33;;;4.90;;
77451;SDS011;66537;52.370;4.832;2024-01-10T01:05:31;12.80;;;5.13;;
77451;SDS011;66537;52.370;4.832;2024-01-10T01:07:56;15.23;;;5.73;;
77451;SDS011;66537;52.370;4.832;2024-01-10T01:10:22;12.93;;;5.07;;
77451;SDS011;66537;52.370;4.832;2024-01-10T01:12:47;15.32;;;5.53;;
77451;SDS011;66537;52.370;4.832;2024-01-10T01:15:13;12.25;;;6.13;;
77451;SDS011;66537;52.370;4.832;2024-01-10T01:17:38;14.40;;;5.78;;
77451;SDS011;66537;52.370;4.832;2024-01-10T01:20:03;14.30;;;5.90;;
77451;SDS011;66537;52.370;4.832;2024-01-10T01:22:30;15.10;;;5.85;;
77451;SDS011;66537;52.370;4.832;2024-01-10T01:24:56;13.05;;;5.97;;
77451;SDS011;66537;52.370;4.832;2024-01-10T01:27:22;15.68;;;6.35;;
77451;SDS011;66537;52.370;4.832;2024-01-10T01:29:47;15.27;;;5.95;;
77451;SDS011;66537;52.370;4.832;2024-01-10T01:32:12;14.80;;;6.07;;
77451;SDS011;66537;52.370;4.832;2024-01-10T01:34:38;15.43;;;6.65;;
77451;SDS011;66537;52.370;4.832;2024-01-10T01:37:03;14.17;;;6.47;;
77451;SDS011;66537;52.370;4.832;2024-01-10T01:39:29;13.98;;;6.22;;
77451;SDS011;66537;52.370;4.832;2024-01-10T01:41:54;15.80;;;6.50;;
77451;SDS011;66537;52.370;4.832;2024-01-10T01:44:19;14.70;;;6.53;;
77451;SDS011;66537;52.370;4.832;2024-01-10T01:46:45;16.13;;;7.17;;
77451;SDS011;66537;52.370;4.832;2024-01-10T01:49:12;17.33;;;6.90;;
77451;SDS011;66537;52.370;4.832;2024-01-10T01:51:38;13.38;;;6.22;;
77451;SDS011;66537;52.370;4.832;2024-01-10T01:54:05;16.50;;;7.43;;
77451;SDS011;66537;52.370;4.832;2024-01-10T01:56:33;15.98;;;6.40;;
77451;SDS011;66537;52.370;4.832;2024-01-10T01:58:58;14.30;;;6.35;;
77451;SDS011;66537;52.370;4.832;2024-01-10T02:01:24;19.60;;;7.60;;
77451;SDS011;66537;52.370;4.832;2024-01-10T02:03:49;16.30;;;6.57;;
77451;SDS011;66537;52.370;4.832;2024-01-10T02:06:15;14.52;;;6.97;;
77451;SDS011;66537;52.370;4.832;2024-01-10T02:08:40;14.83;;;6.83;;
77451;SDS011;66537;52.370;4.832;2024-01-10T02:11:05;16.45;;;7.30;;
77451;SDS011;66537;52.370;4.832;2024-01-10T02:13:32;17.58;;;7.22;;
77451;SDS011;66537;52.370;4.832;2024-01-10T02:15:58;17.00;;;6.75;;
77451;SDS011;66537;52.370;4.832;2024-01-10T02:18:24;13.02;;;5.38;;
77451;SDS011;66537;52.370;4.832;2024-01-10T02:20:49;14.88;;;6.97;;
77451;SDS011;66537;52.370;4.832;2024-01-10T02:23:15;13.85;;;5.40;;
77451;SDS011;66537;52.370;4.832;2024-01-10T02:25:41;15.90;;;6.77;;
77451;SDS011;66537;52.370;4.832;2024-01-10T02:28:06;16.13;;;6.07;;
77451;SDS011;66537;52.370;4.832;2024-01-10T02:30:34;14.35;;;5.75;;
77451;SDS011;66537;52.370;4.832;2024-01-10T02:32:59;13.73;;;5.80;;
77451;SDS011;66537;52.370;4.832;2024-01-10T02:35:24;13.37;;;5.70;;
77451;SDS011;66537;52.370;4.832;2024-01-10T02:37:51;13.23;;;5.65;;
77451;SDS011;66537;52.370;4.832;2024-01-10T02:40:17;12.85;;;5.63;;
77451;SDS011;66537;52.370;4.832;2024-01-10T02:42:42;16.95;;;6.10;;
77451;SDS011;66537;52.370;4.832;2024-01-10T02:45:08;16.15;;;6.53;;
77451;SDS011;66537;52.370;4.832;2024-01-10T02:47:34;13.55;;;6.50;;
77451;SDS011;66537;52.370;4.832;2024-01-10T02:50:01;15.50;;;6.32;;
77451;SDS011;66537;52.370;4.832;2024-01-10T02:52:26;14.50;;;6.13;;
77451;SDS011;66537;52.370;4.832;2024-01-10T02:54:52;14.23;;;6.40;;
77451;SDS011;66537;52.370;4.832;2024-01-10T02:57:17;14.77;;;6.23;;
77451;SDS011;66537;52.370;4.832;2024-01-10T02:59:42;15.20;;;6.97;;
77451;SDS011;66537;52.370;4.832;2024-01-10T03:02:07;14.73;;;6.00;;
77451;SDS011;66537;52.370;4.832;2024-01-10T03:04:33;13.07;;;6.20;;
77451;SDS011;66537;52.370;4.832;2024-01-10T03:06:59;13.83;;;6.33;;
77451;SDS011;66537;52.370;4.832;2024-01-10T03:09:24;15.57;;;6.47;;
77451;SDS011;66537;52.370;4.832;2024-01-10T03:11:49;15.03;;;6.23;;
77451;SDS011;66537;52.370;4.832;2024-01-10T03:14:15;16.10;;;5.80;;
77451;SDS011;66537;52.370;4.832;2024-01-10T03:16:40;16.75;;;6.30;;
77451;SDS011;66537;52.370;4.832;2024-01-10T03:19:05;12.70;;;5.82;;
77451;SDS011;66537;52.370;4.832;2024-01-10T03:21:31;14.90;;;6.43;;
77451;SDS011;66537;52.370;4.832;2024-01-10T03:23:57;14.60;;;5.88;;
77451;SDS011;66537;52.370;4.832;2024-01-10T03:26:23;14.85;;;6.10;;
77451;SDS011;66537;52.370;4.832;2024-01-10T03:28:49;14.57;;;6.22;;
77451;SDS011;66537;52.370;4.832;2024-01-10T03:31:15;14.13;;;7.18;;
77451;SDS011;66537;52.370;4.832;2024-01-10T03:33:41;15.10;;;6.20;;
77451;SDS011;66537;52.370;4.832;2024-01-10T03:36:09;15.98;;;6.38;;
77451;SDS011;66537;52.370;4.832;2024-01-10T03:38:39;17.60;;;6.43;;
77451;SDS011;66537;52.370;4.832;2024-01-10T03:41:04;15.50;;;6.45;;
77451;SDS011;66537;52.370;4.832;2024-01-10T03:43:30;13.82;;;6.00;;
77451;SDS011;66537;52.370;4.832;2024-01-10T03:45:55;15.77;;;7.32;;
77451;SDS011;66537;52.370;4.832;2024-01-10T03:48:21;14.98;;;5.82;;
77451;SDS011;66537;52.370;4.832;2024-01-10T03:50:47;12.63;;;5.57;;
77451;SDS011;66537;52.370;4.832;2024-01-10T03:53:12;13.98;;;5.93;;
77451;SDS011;66537;52.370;4.832;2024-01-10T03:55:37;14.50;;;5.67;;
77451;SDS011;66537;52.370;4.832;2024-01-10T03:58:04;14.68;;;5.68;;
77451;SDS011;66537;52.370;4.832;2024-01-10T04:00:29;14.98;;;6.10;;
77451;SDS011;66537;52.370;4.832;2024-01-10T04:02:55;15.70;;;6.13;;
77451;SDS011;66537;52.370;4.832;2024-01-10T04:05:20;13.63;;;5.50;;
77451;SDS011;66537;52.370;4.832;2024-01-10T04:07:45;13.02;;;5.72;;
77451;SDS011;66537;52.370;4.832;2024-01-10T04:10:11;14.55;;;5.70;;
77451;SDS011;66537;52.370;4.832;2024-01-10T04:12:39;13.38;;;5.78;;
77451;SDS011;66537;52.370;4.832;2024-01-10T04:15:05;15.45;;;6.28;;
77451;SDS011;66537;52.370;4.832;2024-01-10T04:17:31;14.05;;;5.45;;
77451;SDS011;66537;52.370;4.832;2024-01-10T04:19:56;16.17;;;6.27;;
77451;SDS011;66537;52.370;4.832;2024-01-10T04:22:23;13.65;;;5.95;;
77451;SDS011;66537;52.370;4.832;2024-01-10T04:24:49;15.75;;;5.63;;
77451;SDS011;66537;52.370;4.832;2024-01-10T04:27:15;15.60;;;5.93;;
77451;SDS011;66537;52.370;4.832;2024-01-10T04:29:40;13.10;;;5.20;;
77451;SDS011;66537;52.370;4.832;2024-01-10T04:32:05;13.83;;;5.37;;
77451;SDS011;66537;52.370;4.832;2024-01-10T04:34:31;11.80;;;5.15;;
77451;SDS011;66537;52.370;4.832;2024-01-10T04:36:56;12.07;;;5.17;;
77451;SDS011;66537;52.370;4.832;2024-01-10T04:39:22;12.07;;;5.77;;
77451;SDS011;66537;52.370;4.832;2024-01-10T04:41:47;11.17;;;4.83;;
77451;SDS011;66537;52.370;4.832;2024-01-10T04:44:13;11.95;;;5.38;;
77451;SDS011;66537;52.370;4.832;2024-01-10T04:46:39;12.88;;;5.15;;
77451;SDS011;66537;52.370;4.832;2024-01-10T04:49:05;14.65;;;5.80;;
77451;SDS011;66537;52.370;4.832;2024-01-10T04:51:31;12.98;;;4.50;;
77451;SDS011;66537;52.370;4.832;2024-01-10T04:53:56;14.82;;;5.45;;
77451;SDS011;66537;52.370;4.832;2024-01-10T04:56:22;11.40;;;5.17;;
77451;SDS011;66537;52.370;4.832;2024-01-10T04:58:47;11.50;;;5.17;;
77451;SDS011;66537;52.370;4.832;2024-01-10T05:01:12;12.30;;;4.87;;
77451;SDS011;66537;52.370;4.832;2024-01-10T05:03:38;15.30;;;5.80;;
77451;SDS011;66537;52.370;4.832;2024-01-10T05:06:03;14.80;;;5.80;;
77451;SDS011;66537;52.370;4.832;2024-01-10T05:08:29;13.32;;;4.97;;
77451;SDS011;66537;52.370;4.832;2024-01-10T05:10:55;13.13;;;5.97;;
77451;SDS011;66537;52.370;4.832;2024-01-10T05:13:20;15.37;;;5.77;;
77451;SDS011;66537;52.370;4.832;2024-01-10T05:15:45;13.33;;;5.60;;
77451;SDS011;66537;52.370;4.832;2024-01-10T05:18:11;12.83;;;5.50;;
77451;SDS011;66537;52.370;4.832;2024-01-10T05:20:36;17.02;;;6.45;;
77451;SDS011;66537;52.370;4.832;2024-01-10T05:23:01;14.83;;;6.47;;
77451;SDS011;66537;52.370;4.832;2024-01-10T05:25:27;12.80;;;4.95;;
77451;SDS011;66537;52.370;4.832;2024-01-10T05:27:52;14.43;;;6.57;;
77451;SDS011;66537;52.370;4.832;2024-01-10T05:30:18;14.15;;;5.82;;
77451;SDS011;66537;52.370;4.832;2024-01-10T05:32:43;14.50;;;5.40;;
77451;SDS011;66537;52.370;4.832;2024-01-10T05:35:09;14.07;;;5.50;;
77451;SDS011;66537;52.370;4.832;2024-01-10T05:37:35;13.25;;;5.30;;
77451;SDS011;66537;52.370;4.832;2024-01-10T05:40:01;12.07;;;5.25;;
77451;SDS011;66537;52.370;4.832;2024-01-10T05:42:26;16.02;;;5.85;;
77451;SDS011;66537;52.370;4.832;2024-01-10T05:44:52;13.00;;;4.75;;
77451;SDS011;66537;52.370;4.832;2024-01-10T05:47:17;13.20;;;4.97;;
77451;SDS011;66537;52.370;4.832;2024-01-10T05:49:42;11.43;;;5.00;;
77451;SDS011;66537;52.370;4.832;2024-01-10T05:52:08;13.77;;;5.77;;
77451;SDS011;66537;52.370;4.832;2024-01-10T05:54:33;12.23;;;5.37;;
77451;SDS011;66537;52.370;4.832;2024-01-10T05:56:58;11.32;;;5.05;;
77451;SDS011;66537;52.370;4.832;2024-01-10T05:59:25;16.30;;;6.10;;
77451;SDS011;66537;52.370;4.832;2024-01-10T06:01:51;12.07;;;5.03;;
77451;SDS011;66537;52.370;4.832;2024-01-10T06:04:17;12.70;;;4.97;;
77451;SDS011;66537;52.370;4.832;2024-01-10T06:06:42;12.50;;;4.77;;
77451;SDS011;66537;52.370;4.832;2024-01-10T06:09:07;11.40;;;4.70;;
77451;SDS011;66537;52.370;4.832;2024-01-10T06:11:40;18.73;;;5.55;;
77451;SDS011;66537;52.370;4.832;2024-01-10T06:14:06;14.95;;;5.20;;
77451;SDS011;66537;52.370;4.832;2024-01-10T06:16:31;12.80;;;5.13;;
77451;SDS011;66537;52.370;4.832;2024-01-10T06:18:57;14.50;;;5.50;;
77451;SDS011;66537;52.370;4.832;2024-01-10T06:21:22;13.00;;;4.95;;
77451;SDS011;66537;52.370;4.832;2024-01-10T06:23:47;10.87;;;5.03;;
77451;SDS011;66537;52.370;4.832;2024-01-10T06:26:13;14.85;;;5.63;;
77451;SDS011;66537;52.370;4.832;2024-01-10T06:28:38;12.77;;;5.40;;
77451;SDS011;66537;52.370;4.832;2024-01-10T06:31:04;12.83;;;5.07;;
77451;SDS011;66537;52.370;4.832;2024-01-10T06:33:29;11.43;;;5.00;;
77451;SDS011;66537;52.370;4.832;2024-01-10T06:35:54;10.85;;;4.63;;
77451;SDS011;66537;52.370;4.832;2024-01-10T06:38:20;11.20;;;4.32;;
77451;SDS011;66537;52.370;4.832;2024-01-10T06:40:47;11.05;;;3.85;;
77451;SDS011;66537;52.370;4.832;2024-01-10T06:43:13;13.07;;;5.15;;
77451;SDS011;66537;52.370;4.832;2024-01-10T06:45:39;13.02;;;4.50;;
77451;SDS011;66537;52.370;4.832;2024-01-10T06:48:05;11.98;;;4.57;;
77451;SDS011;66537;52.370;4.832;2024-01-10T06:50:31;13.23;;;5.05;;
77451;SDS011;66537;52.370;4.832;2024-01-10T06:52:56;10.93;;;4.18;;
77451;SDS011;66537;52.370;4.832;2024-01-10T06:55:22;13.20;;;4.47;;
77451;SDS011;66537;52.370;4.832;2024-01-10T06:57:49;10.93;;;4.18;;
77451;SDS011;66537;52.370;4.832;2024-01-10T07:00:16;10.35;;;4.07;;
77451;SDS011;66537;52.370;4.832;2024-01-10T07:02:42;11.50;;;4.60;;
77451;SDS011;66537;52.370;4.832;2024-01-10T07:05:08;13.27;;;4.32;;
77451;SDS011;66537;52.370;4.832;2024-01-10T07:07:34;11.75;;;3.35;;
77451;SDS011;66537;52.370;4.832;2024-01-10T07:10:00;12.43;;;4.82;;
77451;SDS011;66537;52.370;4.832;2024-01-10T07:12:26;15.73;;;4.72;;
77451;SDS011;66537;52.370;4.832;2024-01-10T07:14:51;11.67;;;4.00;;
77451;SDS011;66537;52.370;4.832;2024-01-10T07:17:16;11.65;;;4.57;;
77451;SDS011;66537;52.370;4.832;2024-01-10T07:19:42;12.93;;;3.90;;
77451;SDS011;66537;52.370;4.832;2024-01-10T07:22:07;11.70;;;3.60;;
77451;SDS011;66537;52.370;4.832;2024-01-10T07:24:35;10.55;;;4.13;;
77451;SDS011;66537;52.370;4.832;2024-01-10T07:27:02;11.00;;;4.43;;
77451;SDS011;66537;52.370;4.832;2024-01-10T07:29:27;12.00;;;3.88;;
77451;SDS011;66537;52.370;4.832;2024-01-10T07:31:53;13.60;;;4.10;;
77451;SDS011;66537;52.370;4.832;2024-01-10T07:34:19;9.85;;;3.97;;
77451;SDS011;66537;52.370;4.832;2024-01-10T07:36:44;11.07;;;4.33;;
77451;SDS011;66537;52.370;4.832;2024-01-10T07:39:09;12.40;;;3.87;;
77451;SDS011;66537;52.370;4.832;2024-01-10T07:41:35;13.67;;;4.37;;
77451;SDS011;66537;52.370;4.832;2024-01-10T07:44:00;9.05;;;3.58;;
77451;SDS011;66537;52.370;4.832;2024-01-10T07:46:25;9.93;;;4.38;;
77451;SDS011;66537;52.370;4.832;2024-01-10T07:48:52;11.43;;;4.80;;
77451;SDS011;66537;52.370;4.832;2024-01-10T07:51:17;10.57;;;3.90;;
77451;SDS011;66537;52.370;4.832;2024-01-10T07:53:43;9.97;;;3.43;;
77451;SDS011;66537;52.370;4.832;2024-01-10T07:56:08;8.13;;;3.13;;
77451;SDS011;66537;52.370;4.832;2024-01-10T07:58:33;9.40;;;4.20;;
77451;SDS011;66537;52.370;4.832;2024-01-10T08:00:58;10.23;;;3.93;;
77451;SDS011;66537;52.370;4.832;2024-01-10T08:03:24;11.07;;;4.25;;
77451;SDS011;66537;52.370;4.832;2024-01-10T08:05:49;12.57;;;4.30;;
77451;SDS011;66537;52.370;4.832;2024-01-10T08:08:15;10.53;;;4.10;;
77451;SDS011;66537;52.370;4.832;2024-01-10T08:10:42;13.93;;;5.00;;
77451;SDS011;66537;52.370;4.832;2024-01-10T08:13:07;15.05;;;4.93;;
77451;SDS011;66537;52.370;4.832;2024-01-10T08:15:32;9.90;;;4.40;;
77451;SDS011;66537;52.370;4.832;2024-01-10T08:17:59;14.27;;;4.90;;
77451;SDS011;66537;52.370;4.832;2024-01-10T08:20:27;11.00;;;4.25;;
77451;SDS011;66537;52.370;4.832;2024-01-10T08:22:53;11.85;;;4.10;;
77451;SDS011;66537;52.370;4.832;2024-01-10T08:25:18;11.50;;;3.27;;
77451;SDS011;66537;52.370;4.832;2024-01-10T08:27:44;10.98;;;4.20;;
77451;SDS011;66537;52.370;4.832;2024-01-10T08:30:10;10.23;;;4.18;;
77451;SDS011;66537;52.370;4.832;2024-01-10T08:32:36;12.48;;;4.20;;
77451;SDS011;66537;52.370;4.832;2024-01-10T08:35:02;10.70;;;4.00;;
77451;SDS011;66537;52.370;4.832;2024-01-10T08:37:29;13.20;;;4.50;;
77451;SDS011;66537;52.370;4.832;2024-01-10T08:39:55;11.25;;;3.75;;
77451;SDS011;66537;52.370;4.832;2024-01-10T08:42:20;13.17;;;3.77;;
77451;SDS011;66537;52.370;4.832;2024-01-10T08:44:46;11.83;;;3.13;;
77451;SDS011;66537;52.370;4.832;2024-01-10T08:47:11;12.30;;;4.00;;
77451;SDS011;66537;52.370;4.832;2024-01-10T08:49:36;9.60;;;3.60;;
77451;SDS011;66537;52.370;4.832;2024-01-10T08:52:03;12.98;;;4.55;;
77451;SDS011;66537;52.370;4.832;2024-01-10T08:54:29;10.30;;;4.60;;
77451;SDS011;66537;52.370;4.832;2024-01-10T08:56:54;17.70;;;4.22;;
77451;SDS011;66537;52.370;4.832;2024-01-10T08:59:19;14.47;;;4.50;;
77451;SDS011;66537;52.370;4.832;2024-01-10T09:01:45;11.77;;;4.77;;
77451;SDS011;66537;52.370;4.832;2024-01-10T09:04:10;11.07;;;4.30;;
77451;SDS011;66537;52.370;4.832;2024-01-10T09:06:35;13.87;;;4.10;;
77451;SDS011;66537;52.370;4.832;2024-01-10T09:09:01;11.47;;;4.47;;
77451;SDS011;66537;52.370;4.832;2024-01-10T09:11:26;9.95;;;3.67;;
77451;SDS011;66537;52.370;4.832;2024-01-10T09:13:51;11.30;;;4.70;;
77451;SDS011;66537;52.370;4.832;2024-01-10T09:16:17;10.33;;;4.40;;
77451;SDS011;66537;52.370;4.832;2024-01-10T09:18:45;11.90;;;4.53;;
77451;SDS011;66537;52.370;4.832;2024-01-10T09:21:10;10.83;;;4.37;;
77451;SDS011;66537;52.370;4.832;2024-01-10T09:23:36;12.32;;;4.45;;
77451;SDS011;66537;52.370;4.832;2024-01-10T09:26:02;10.05;;;4.43;;
77451;SDS011;66537;52.370;4.832;2024-01-10T09:28:27;11.52;;;4.45;;
77451;SDS011;66537;52.370;4.832;2024-01-10T09:30:52;14.00;;;4.70;;
77451;SDS011;66537;52.370;4.832;2024-01-10T09:33:19;15.77;;;4.78;;
77451;SDS011;66537;52.370;4.832;2024-01-10T09:35:44;12.50;;;4.35;;
77451;SDS011;66537;52.370;4.832;2024-01-10T09:38:10;10.70;;;4.03;;
77451;SDS011;66537;52.370;4.832;2024-01-10T09:40:35;11.05;;;4.90;;
77451;SDS011;66537;52.370;4.832;2024-01-10T09:43:01;10.50;;;4.13;;
77451;SDS011;66537;52.370;4.832;2024-01-10T09:45:26;13.82;;;5.80;;
77451;SDS011;66537;52.370;4.832;2024-01-10T09:47:56;11.40;;;4.80;;
77451;SDS011;66537;52.370;4.832;2024-01-10T09:50:22;12.50;;;4.40;;
77451;SDS011;66537;52.370;4.832;2024-01-10T09:52:50;8.68;;;4.38;;
77451;SDS011;66537;52.370;4.832;2024-01-10T09:55:17;11.38;;;4.45;;
77451;SDS011;66537;52.370;4.832;2024-01-10T09:57:46;10.82;;;5.20;;
77451;SDS011;66537;52.370;4.832;2024-01-10T10:00:11;11.57;;;4.65;;
77451;SDS011;66537;52.370;4.832;2024-01-10T10:02:40;10.77;;;5.03;;
77451;SDS011;66537;52.370;4.832;2024-01-10T10:05:08;12.63;;;5.47;;
77451;SDS011;66537;52.370;4.832;2024-01-10T10:07:50;11.90;;;4.60;;
77451;SDS011;66537;52.370;4.832;2024-01-10T10:10:19;11.32;;;5.22;;
77451;SDS011;66537;52.370;4.832;2024-01-10T10:15:17;13.57;;;5.18;;
77451;SDS011;66537;52.370;4.832;2024-01-10T10:17:45;11.68;;;4.72;;
77451;SDS011;66537;52.370;4.832;2024-01-10T10:20:22;12.45;;;4.45;;
77451;SDS011;66537;52.370;4.832;2024-01-10T10:25:36;12.63;;;5.40;;
77451;SDS011;66537;52.370;4.832;2024-01-10T10:28:04;16.80;;;5.70;;
77451;SDS011;66537;52.370;4.832;2024-01-10T10:30:30;14.57;;;5.45;;
77451;SDS011;66537;52.370;4.832;2024-01-10T10:32:56;13.88;;;5.57;;
77451;SDS011;66537;52.370;4.832;2024-01-10T10:35:22;12.32;;;4.75;;
77451;SDS011;66537;52.370;4.832;2024-01-10T10:37:48;13.40;;;4.57;;
77451;SDS011;66537;52.370;4.832;2024-01-10T10:40:15;9.98;;;4.18;;
77451;SDS011;66537;52.370;4.832;2024-01-10T10:42:45;12.55;;;5.50;;
77451;SDS011;66537;52.370;4.832;2024-01-10T10:45:15;13.00;;;4.50;;
77451;SDS011;66537;52.370;4.832;2024-01-10T10:47:43;13.63;;;5.88;;
77451;SDS011;66537;52.370;4.832;2024-01-10T10:50:13;12.85;;;5.03;;
77451;SDS011;66537;52.370;4.832;2024-01-10T10:52:46;11.93;;;5.00;;
77451;SDS011;66537;52.370;4.832;2024-01-10T10:55:13;13.82;;;4.60;;
77451;SDS011;66537;52.370;4.832;2024-01-10T10:57:41;11.63;;;5.38;;
77451;SDS011;66537;52.370;4.832;2024-01-10T11:00:10;13.63;;;5.28;;
77451;SDS011;66537;52.370;4.832;2024-01-10T11:02:37;15.27;;;6.00;;
77451;SDS011;66537;52.370;4.832;2024-01-10T11:05:02;11.60;;;4.82;;
77451;SDS011;66537;52.370;4.832;2024-01-10T11:07:29;13.60;;;6.00;;
77451;SDS011;66537;52.370;4.832;2024-01-10T11:09:55;15.60;;;5.80;;
77451;SDS011;66537;52.370;4.832;2024-01-10T11:15:37;13.45;;;5.00;;
77451;SDS011;66537;52.370;4.832;2024-01-10T11:24:03;14.23;;;5.10;;
77451;SDS011;66537;52.370;4.832;2024-01-10T11:26:31;14.15;;;6.07;;
77451;SDS011;66537;52.370;4.832;2024-01-10T11:28:58;14.45;;;5.40;;
77451;SDS011;66537;52.370;4.832;2024-01-10T11:31:29;13.95;;;6.10;;
77451;SDS011;66537;52.370;4.832;2024-01-10T11:33:56;12.98;;;5.82;;
77451;SDS011;66537;52.370;4.832;2024-01-10T11:36:22;16.17;;;5.93;;
77451;SDS011;66537;52.370;4.832;2024-01-10T11:38:54;13.93;;;5.40;;
77451;SDS011;66537;52.370;4.832;2024-01-10T11:46:37;14.75;;;5.68;;
77451;SDS011;66537;52.370;4.832;2024-01-10T11:49:10;14.32;;;5.25;;
77451;SDS011;66537;52.370;4.832;2024-01-10T11:51:41;14.50;;;6.07;;
77451;SDS011;66537;52.370;4.832;2024-01-10T11:54:07;12.48;;;5.38;;
77451;SDS011;66537;52.370;4.832;2024-01-10T11:56:39;12.13;;;4.72;;
77451;SDS011;66537;52.370;4.832;2024-01-10T11:59:06;13.70;;;5.97;;
77451;SDS011;66537;52.370;4.832;2024-01-10T12:01:36;15.35;;;5.85;;
77451;SDS011;66537;52.370;4.832;2024-01-10T12:04:02;15.07;;;5.90;;
77451;SDS011;66537;52.370;4.832;2024-01-10T12:09:50;13.45;;;5.38;;
77451;SDS011;66537;52.370;4.832;2024-01-10T12:12:16;16.48;;;6.03;;
77451;SDS011;66537;52.370;4.832;2024-01-10T12:14:41;12.00;;;5.72;;
77451;SDS011;66537;52.370;4.832;2024-01-10T12:17:11;17.95;;;6.43;;
77451;SDS011;66537;52.370;4.832;2024-01-10T12:19:36;17.35;;;6.43;;
77451;SDS011;66537;52.370;4.832;2024-01-10T12:22:02;14.63;;;5.65;;
77451;SDS011;66537;52.370;4.832;2024-01-10T12:24:29;15.10;;;5.78;;
77451;SDS011;66537;52.370;4.832;2024-01-10T12:26:55;16.55;;;6.40;;
77451;SDS011;66537;52.370;4.832;2024-01-10T12:29:21;15.43;;;6.30;;
77451;SDS011;66537;52.370;4.832;2024-01-10T12:31:47;13.30;;;6.25;;
77451;SDS011;66537;52.370;4.832;2024-01-10T12:34:13;15.07;;;6.50;;
77451;SDS011;66537;52.370;4.832;2024-01-10T12:36:39;13.63;;;5.80;;
77451;SDS011;66537;52.370;4.832;2024-01-10T12:39:04;13.57;;;6.20;;
77451;SDS011;66537;52.370;4.832;2024-01-10T12:41:32;12.25;;;5.55;;
77451;SDS011;66537;52.370;4.832;2024-01-10T12:43:58;16.08;;;5.80;;
77451;SDS011;66537;52.370;4.832;2024-01-10T12:46:27;14.02;;;6.63;;
77451;SDS011;66537;52.370;4.832;2024-01-10T12:49:03;15.40;;;6.13;;
77451;SDS011;66537;52.370;4.832;2024-01-10T12:51:32;12.32;;;5.45;;
77451;SDS011;66537;52.370;4.832;2024-01-10T12:53:59;14.70;;;6.20;;
77451;SDS011;66537;52.370;4.832;2024-01-10T12:56:25;15.23;;;5.50;;
77451;SDS011;66537;52.370;4.832;2024-01-10T12:58:50;14.75;;;6.78;;
77451;SDS011;66537;52.370;4.832;2024-01-10T13:01:16;14.47;;;5.70;;
77451;SDS011;66537;52.370;4.832;2024-01-10T13:03:41;14.77;;;6.05;;
77451;SDS011;66537;52.370;4.832;2024-01-10T13:06:07;15.75;;;6.03;;
77451;SDS011;66537;52.370;4.832;2024-01-10T13:08:34;14.10;;;5.93;;
77451;SDS011;66537;52.370;4.832;2024-01-10T13:10:59;12.77;;;5.33;;
77451;SDS011;66537;52.370;4.832;2024-01-10T13:13:25;12.57;;;5.55;;
77451;SDS011;66537;52.370;4.832;2024-01-10T13:15:50;13.43;;;6.17;;
77451;SDS011;66537;52.370;4.832;2024-01-10T13:18:16;13.85;;;6.43;;
77451;SDS011;66537;52.370;4.832;2024-01-10T13:20:42;13.70;;;5.30;;
77451;SDS011;66537;52.370;4.832;2024-01-10T13:23:08;13.27;;;5.72;;
77451;SDS011;66537;52.370;4.832;2024-01-10T13:25:34;17.38;;;6.75;;
77451;SDS011;66537;52.370;4.832;2024-01-10T13:28:00;15.88;;;6.50;;
77451;SDS011;66537;52.370;4.832;2024-01-10T13:30:25;16.10;;;6.82;;
77451;SDS011;66537;52.370;4.832;2024-01-10T13:32:51;12.63;;;6.35;;
77451;SDS011;66537;52.370;4.832;2024-01-10T13:35:17;13.75;;;5.18;;
77451;SDS011;66537;52.370;4.832;2024-01-10T13:37:42;12.15;;;5.80;;
77451;SDS011;66537;52.370;4.832;2024-01-10T13:40:08;14.55;;;6.05;;
77451;SDS011;66537;52.370;4.832;2024-01-10T13:42:35;15.57;;;6.40;;
77451;SDS011;66537;52.370;4.832;2024-01-10T13:45:02;14.00;;;5.38;;
77451;SDS011;66537;52.370;4.832;2024-01-10T13:47:31;15.48;;;7.10;;
77451;SDS011;66537;52.370;4.832;2024-01-10T13:49:58;12.85;;;5.85;;
77451;SDS011;66537;52.370;4.832;2024-01-10T13:52:24;12.73;;;6.37;;
77451;SDS011;66537;52.370;4.832;2024-01-10T13:54:49;16.17;;;6.87;;
77451;SDS011;66537;52.370;4.832;2024-01-10T13:57:14;16.17;;;6.25;;
77451;SDS011;66537;52.370;4.832;2024-01-10T13:59:40;17.13;;;5.67;;
77451;SDS011;66537;52.370;4.832;2024-01-10T14:02:06;15.40;;;6.75;;
77451;SDS011;66537;52.370;4.832;2024-01-10T14:04:31;17.15;;;6.72;;
77451;SDS011;66537;52.370;4.832;2024-01-10T14:06:58;13.82;;;6.55;;
77451;SDS011;66537;52.370;4.832;2024-01-10T14:09:23;14.13;;;6.20;;
77451;SDS011;66537;52.370;4.832;2024-01-10T14:11:49;15.43;;;6.80;;
77451;SDS011;66537;52.370;4.832;2024-01-10T14:14:15;15.90;;;6.47;;
77451;SDS011;66537;52.370;4.832;2024-01-10T14:16:41;15.93;;;6.40;;
77451;SDS011;66537;52.370;4.832;2024-01-10T14:19:06;13.43;;;6.50;;
77451;SDS011;66537;52.370;4.832;2024-01-10T14:21:31;14.23;;;6.87;;
77451;SDS011;66537;52.370;4.832;2024-01-10T14:23:57;15.60;;;6.90;;
77451;SDS011;66537;52.370;4.832;2024-01-10T14:26:22;12.73;;;6.20;;
77451;SDS011;66537;52.370;4.832;2024-01-10T14:28:47;14.70;;;5.90;;
77451;SDS011;66537;52.370;4.832;2024-01-10T14:31:13;18.27;;;6.88;;
77451;SDS011;66537;52.370;4.832;2024-01-10T14:33:39;14.63;;;6.03;;
77451;SDS011;66537;52.370;4.832;2024-01-10T14:36:05;18.95;;;6.75;;
77451;SDS011;66537;52.370;4.832;2024-01-10T14:38:30;16.00;;;6.32;;
77451;SDS011;66537;52.370;4.832;2024-01-10T14:40:56;12.80;;;6.18;;
77451;SDS011;66537;52.370;4.832;2024-01-10T14:43:21;17.85;;;6.75;;
77451;SDS011;66537;52.370;4.832;2024-01-10T14:45:46;13.90;;;6.13;;
77451;SDS011;66537;52.370;4.832;2024-01-10T14:48:12;14.87;;;6.63;;
77451;SDS011;66537;52.370;4.832;2024-01-10T14:50:37;19.13;;;7.30;;